createdAt,value
2023-06-28T00:01:18.548Z,37.98
2023-06-28T00:03:45.687Z,38.32
2023-06-28T00:06:12.736Z,38.64
2023-06-28T00:08:41.715Z,38.84
2023-06-28T00:11:11.826Z,39.59
2023-06-28T00:13:38.875Z,41.93
2023-06-28T00:16:06.001Z,43.88
2023-06-28T00:18:34.217Z,44.19
2023-06-28T00:21:03.586Z,44.16
2023-06-28T00:23:30.958Z,41.79
2023-06-28T00:25:57.968Z,41.95
2023-06-28T00:28:25.069Z,41.81
2023-06-28T00:30:52.072Z,40.60
2023-06-28T00:33:21.583Z,40.46
2023-06-28T00:35:50.115Z,40.26
2023-06-28T00:38:17.337Z,41.55
2023-06-28T00:40:44.630Z,40.62
2023-06-28T00:43:11.872Z,40.66
2023-06-28T00:45:38.898Z,40.87
2023-06-28T00:48:07.272Z,40.47
2023-06-28T00:50:36.708Z,40.92
2023-06-28T00:53:04.337Z,40.74
2023-06-28T00:55:31.611Z,40.70
2023-06-28T00:57:58.681Z,40.63
2023-06-28T01:00:27.625Z,40.48
2023-06-28T01:02:54.888Z,41.11
2023-06-28T01:05:23.191Z,40.96
2023-06-28T01:07:52.929Z,40.79
2023-06-28T01:10:20.838Z,40.65
2023-06-28T01:12:48.816Z,40.74
2023-06-28T01:15:16.514Z,40.75
2023-06-28T01:17:43.651Z,40.78
2023-06-28T01:20:11.195Z,40.77
2023-06-28T01:22:41.753Z,40.44
2023-06-28T01:25:11.955Z,40.63
2023-06-28T01:27:45.966Z,40.43
2023-06-28T01:30:16.169Z,40.84
2023-06-28T01:32:44.634Z,41.29
2023-06-28T01:35:11.997Z,43.15
2023-06-28T01:37:40.303Z,41.76
2023-06-28T01:40:12.194Z,43.30
2023-06-28T01:42:40.507Z,42.95
2023-06-28T01:45:08.400Z,41.84
2023-06-28T01:47:35.945Z,41.70
2023-06-28T01:50:03.543Z,41.17
2023-06-28T01:52:30.872Z,41.81
2023-06-28T01:55:00.857Z,41.56
2023-06-28T01:57:27.909Z,41.64
2023-06-28T01:59:56.038Z,41.37
2023-06-28T02:02:23.396Z,43.22
2023-06-28T02:04:50.622Z,43.14
2023-06-28T02:07:18.079Z,43.12
2023-06-28T02:09:46.095Z,45.60
2023-06-28T02:12:13.215Z,46.55
2023-06-28T02:14:40.792Z,44.38
2023-06-28T02:17:15.220Z,43.64
2023-06-28T02:19:43.167Z,42.99
2023-06-28T02:22:10.348Z,43.91
2023-06-28T02:24:37.405Z,45.96
2023-06-28T02:27:05.822Z,46.28
2023-06-28T02:29:32.917Z,46.17
2023-06-28T02:32:01.157Z,44.90
2023-06-28T02:34:28.617Z,44.03
2023-06-28T02:36:56.131Z,44.15
2023-06-28T02:39:23.852Z,46.36
2023-06-28T02:41:51.271Z,46.78
2023-06-28T02:44:18.408Z,45.18
2023-06-28T02:46:46.424Z,45.24
2023-06-28T02:49:13.687Z,44.77
2023-06-28T02:51:40.790Z,44.18
2023-06-28T02:54:10.559Z,44.32
2023-06-28T02:56:38.331Z,44.59
2023-06-28T02:59:33.672Z,45.17
2023-06-28T03:02:00.949Z,44.83
2023-06-28T03:04:28.817Z,44.94
2023-06-28T03:06:57.599Z,45.96
2023-06-28T03:09:25.123Z,45.12
2023-06-28T03:11:52.167Z,44.74
2023-06-28T03:14:19.380Z,45.03
2023-06-28T03:16:46.476Z,44.76
2023-06-28T03:19:13.610Z,44.80
2023-06-28T03:21:42.798Z,44.35
2023-06-28T03:24:09.824Z,44.62
2023-06-28T03:26:36.895Z,44.11
2023-06-28T03:29:03.933Z,45.51
2023-06-28T03:31:32.816Z,45.32
2023-06-28T03:34:01.200Z,45.03
2023-06-28T03:36:32.729Z,43.87
2023-06-28T03:38:59.798Z,43.89
2023-06-28T03:41:28.656Z,44.31
2023-06-28T03:43:56.107Z,44.46
2023-06-28T03:46:24.140Z,43.88
2023-06-28T03:48:51.200Z,43.94
2023-06-28T03:51:18.523Z,44.54
2023-06-28T03:53:45.526Z,44.63
2023-06-28T03:56:12.615Z,44.49
2023-06-28T03:58:39.661Z,44.60
2023-06-28T04:01:06.655Z,44.40
2023-06-28T04:03:33.816Z,44.60
2023-06-28T04:06:00.989Z,44.56
2023-06-28T04:08:28.080Z,44.61
2023-06-28T04:10:56.062Z,44.72
2023-06-28T04:13:23.831Z,44.82
2023-06-28T04:15:50.850Z,44.68
2023-06-28T04:18:17.849Z,45.03
2023-06-28T04:20:45.037Z,44.50
2023-06-28T04:23:12.183Z,44.88
2023-06-28T04:25:39.241Z,45.55
2023-06-28T04:28:06.291Z,48.75
2023-06-28T04:30:33.316Z,48.58
2023-06-28T04:33:05.541Z,49.29
2023-06-28T04:35:35.879Z,49.92
2023-06-28T04:38:04.337Z,51.31
2023-06-28T04:40:34.035Z,49.07
2023-06-28T04:43:01.105Z,50.24
2023-06-28T04:45:37.360Z,50.49
2023-06-28T04:48:09.589Z,50.06
2023-06-28T04:50:38.648Z,48.77
2023-06-28T04:53:06.447Z,49.62
2023-06-28T04:55:36.020Z,49.50
2023-06-28T04:58:05.374Z,48.85
2023-06-28T05:00:34.640Z,50.43
2023-06-28T05:03:02.172Z,48.29
2023-06-28T05:05:30.166Z,47.55
2023-06-28T05:07:57.758Z,47.96
2023-06-28T05:10:25.686Z,48.08
2023-06-28T05:12:53.371Z,47.39
2023-06-28T05:15:20.858Z,47.22
2023-06-28T05:17:48.384Z,47.16
2023-06-28T05:20:16.111Z,47.79
2023-06-28T05:22:50.047Z,47.18
2023-06-28T05:25:18.055Z,47.64
2023-06-28T05:27:45.103Z,47.15
2023-06-28T05:30:12.351Z,47.73
2023-06-28T05:32:39.588Z,47.40
2023-06-28T05:35:07.062Z,47.50
2023-06-28T05:37:34.081Z,46.94
2023-06-28T05:40:01.095Z,47.51
2023-06-28T05:42:28.158Z,46.91
2023-06-28T05:44:55.273Z,47.38
2023-06-28T05:47:22.298Z,47.38
2023-06-28T05:49:50.466Z,47.25
2023-06-28T05:52:18.545Z,47.15
2023-06-28T05:54:45.553Z,47.08
2023-06-28T05:57:13.627Z,46.70
2023-06-28T05:59:40.632Z,47.28
2023-06-28T06:02:07.732Z,47.43
2023-06-28T06:04:34.781Z,48.05
2023-06-28T06:07:01.833Z,47.15
2023-06-28T06:09:30.542Z,47.52
2023-06-28T06:11:57.921Z,47.61
2023-06-28T06:14:24.943Z,49.45
2023-06-28T06:16:51.927Z,49.03
2023-06-28T06:19:18.930Z,48.04
2023-06-28T06:21:45.929Z,49.99
2023-06-28T06:24:12.936Z,48.29
2023-06-28T06:26:39.994Z,48.04
2023-06-28T06:29:07.038Z,47.94
2023-06-28T06:31:34.365Z,48.12
2023-06-28T06:34:02.345Z,48.00
2023-06-28T06:36:29.656Z,48.33
2023-06-28T06:39:00.765Z,47.37
2023-06-28T06:41:28.144Z,47.73
2023-06-28T06:43:55.792Z,47.49
2023-06-28T06:46:22.859Z,47.89
2023-06-28T06:48:49.994Z,47.53
2023-06-28T06:51:17.289Z,47.67
2023-06-28T06:53:44.388Z,48.12
2023-06-28T06:56:11.697Z,48.12
2023-06-28T06:58:38.778Z,48.31
2023-06-28T07:01:05.906Z,48.29
2023-06-28T07:03:33.012Z,48.18
2023-06-28T07:06:00.424Z,47.76
2023-06-28T07:08:28.179Z,47.88
2023-06-28T07:10:55.180Z,47.97
2023-06-28T07:13:22.229Z,47.76
2023-06-28T07:15:49.307Z,48.01
2023-06-28T07:18:17.346Z,48.46
2023-06-28T07:20:44.601Z,48.00
2023-06-28T07:23:11.616Z,47.68
2023-06-28T07:25:40.247Z,47.99
2023-06-28T07:28:07.706Z,47.54
2023-06-28T07:30:56.476Z,46.79
2023-06-28T07:33:24.492Z,47.92
2023-06-28T07:35:52.782Z,48.24
2023-06-28T07:38:21.505Z,48.56
2023-06-28T07:40:49.979Z,47.87
2023-06-28T07:43:19.473Z,47.62
2023-06-28T07:45:46.982Z,47.84
2023-06-28T07:48:14.136Z,47.91
2023-06-28T07:50:41.914Z,47.85
2023-06-28T07:53:08.915Z,47.92
2023-06-28T07:55:36.019Z,47.80
2023-06-28T07:58:03.083Z,47.62
2023-06-28T08:00:32.034Z,47.75
2023-06-28T08:03:00.066Z,48.14
2023-06-28T08:05:27.278Z,47.83
2023-06-28T08:07:57.579Z,47.45
2023-06-28T08:10:27.831Z,47.83
2023-06-28T08:12:56.427Z,48.24
2023-06-28T08:15:23.528Z,48.11
2023-06-28T08:17:50.950Z,47.67
2023-06-28T08:20:18.356Z,47.58
2023-06-28T08:22:45.392Z,47.40
2023-06-28T08:25:12.428Z,47.71
2023-06-28T08:27:39.477Z,47.42
2023-06-28T08:30:07.525Z,47.54
2023-06-28T08:32:36.211Z,47.21
2023-06-28T08:35:05.337Z,47.57
2023-06-28T08:37:35.462Z,47.21
2023-06-28T08:40:03.075Z,46.84
2023-06-28T08:42:31.340Z,46.81
2023-06-28T08:44:59.131Z,46.69
2023-06-28T08:47:33.255Z,47.04
2023-06-28T08:50:00.586Z,46.77
2023-06-28T08:52:28.824Z,46.92
2023-06-28T08:54:58.848Z,47.21
2023-06-28T08:57:26.952Z,47.04
2023-06-28T08:59:54.165Z,47.00
2023-06-28T09:02:23.432Z,46.58
2023-06-28T09:04:52.333Z,45.44
2023-06-28T09:07:22.243Z,45.56
2023-06-28T09:09:50.416Z,44.97
2023-06-28T09:12:17.854Z,44.07
2023-06-28T09:14:44.958Z,43.94
2023-06-28T09:17:11.935Z,44.27
2023-06-28T09:19:39.284Z,43.68
2023-06-28T09:22:09.864Z,43.82
2023-06-28T09:24:38.116Z,43.97
2023-06-28T09:27:07.111Z,43.26
2023-06-28T09:29:35.369Z,43.21
2023-06-28T09:32:02.818Z,42.62
2023-06-28T09:34:29.894Z,42.98
2023-06-28T09:36:59.421Z,43.34
2023-06-28T09:39:27.150Z,43.28
2023-06-28T09:41:55.207Z,42.81
2023-06-28T09:44:30.645Z,42.43
2023-06-28T09:47:06.048Z,42.94
2023-06-28T09:49:33.559Z,42.79
2023-06-28T09:52:08.050Z,42.96
2023-06-28T09:54:45.770Z,43.10
2023-06-28T09:57:13.707Z,41.96
2023-06-28T09:59:42.582Z,41.36
2023-06-28T10:02:10.799Z,41.32
2023-06-28T10:04:41.476Z,42.11
2023-06-28T10:07:12.058Z,42.15
2023-06-28T10:09:42.482Z,42.61
2023-06-28T10:12:19.431Z,42.47
2023-06-28T10:14:59.510Z,41.10
2023-06-28T10:17:36.684Z,42.51
2023-06-28T10:20:07.602Z,42.02
2023-06-28T10:22:35.538Z,42.74
2023-06-28T10:25:06.612Z,42.50
2023-06-28T10:27:35.188Z,42.38
2023-06-28T10:30:03.850Z,42.17
2023-06-28T10:32:31.431Z,42.40
2023-06-28T10:34:59.839Z,41.75
2023-06-28T10:37:26.941Z,42.24
2023-06-28T10:39:54.814Z,41.07
2023-06-28T10:42:22.197Z,41.54
2023-06-28T10:44:57.610Z,41.15
2023-06-28T10:47:25.334Z,40.87
2023-06-28T10:50:12.667Z,42.13
2023-06-28T10:52:48.188Z,40.78
2023-06-28T10:55:35.449Z,40.68
2023-06-28T10:58:11.636Z,40.08
2023-06-28T11:00:40.203Z,40.40
2023-06-28T11:03:08.624Z,39.63
2023-06-28T11:05:40.546Z,40.51
2023-06-28T11:08:16.285Z,39.09
2023-06-28T11:10:55.521Z,38.89
2023-06-28T11:13:40.913Z,40.13
2023-06-28T11:16:10.236Z,39.08
2023-06-28T11:18:38.528Z,37.80
2023-06-28T11:21:13.358Z,37.11
2023-06-28T11:23:42.529Z,37.64
2023-06-28T11:26:20.585Z,38.45
2023-06-28T11:28:56.856Z,38.76
2023-06-28T11:31:27.356Z,38.05
2023-06-28T11:33:55.732Z,38.70
2023-06-28T11:36:26.371Z,38.42
2023-06-28T11:38:53.561Z,36.89
2023-06-28T11:41:20.956Z,36.96
2023-06-28T11:43:49.377Z,37.16
2023-06-28T11:46:22.634Z,37.99
2023-06-28T11:48:51.912Z,38.56
2023-06-28T11:51:22.821Z,38.42
2023-06-28T11:53:52.968Z,37.51
2023-06-28T11:56:20.099Z,36.90
2023-06-28T11:58:47.275Z,37.26
2023-06-28T12:01:22.874Z,36.89
2023-06-28T12:03:50.090Z,37.50
2023-06-28T12:06:17.806Z,36.79
2023-06-28T12:08:44.948Z,37.01
2023-06-28T12:11:14.565Z,37.19
2023-06-28T12:13:42.616Z,36.98
2023-06-28T12:16:15.835Z,37.16
2023-06-28T12:18:59.664Z,35.86
2023-06-28T12:21:30.949Z,35.87
2023-06-28T12:24:18.964Z,37.46
2023-06-28T12:26:48.738Z,36.85
2023-06-28T12:29:21.679Z,37.27
2023-06-28T12:31:53.623Z,37.14
2023-06-28T12:34:29.413Z,37.05
2023-06-28T12:37:01.095Z,37.14
2023-06-28T12:39:37.487Z,36.46
2023-06-28T12:42:21.515Z,37.92
2023-06-28T12:44:57.259Z,36.89
2023-06-28T12:47:27.354Z,36.73
2023-06-28T12:49:55.625Z,36.51
2023-06-28T12:52:25.265Z,36.55
2023-06-28T12:54:53.162Z,35.79
2023-06-28T12:57:27.377Z,36.17
2023-06-28T12:59:54.675Z,35.62
2023-06-28T13:02:22.020Z,34.52
2023-06-28T13:04:49.888Z,35.41
2023-06-28T13:07:17.317Z,35.58
2023-06-28T13:09:44.450Z,35.49
2023-06-28T13:12:12.606Z,36.72
2023-06-28T13:14:39.644Z,36.23
2023-06-28T13:17:07.185Z,36.67
2023-06-28T13:19:34.446Z,36.14
2023-06-28T13:22:01.527Z,35.53
2023-06-28T13:24:28.527Z,35.96
2023-06-28T13:26:57.518Z,36.06
2023-06-28T13:29:25.240Z,36.03
2023-06-28T13:31:52.515Z,35.84
2023-06-28T13:34:19.574Z,35.76
2023-06-28T13:36:46.976Z,35.67
2023-06-28T13:39:14.124Z,35.74
2023-06-28T13:41:43.969Z,35.84
2023-06-28T13:44:11.430Z,35.16
2023-06-28T13:46:38.495Z,35.37
2023-06-28T13:49:05.545Z,35.28
2023-06-28T13:51:33.714Z,34.78
2023-06-28T13:54:01.406Z,35.46
2023-06-28T13:56:28.420Z,35.19
2023-06-28T13:58:55.845Z,35.37
2023-06-28T14:01:24.231Z,35.13
2023-06-28T14:03:52.028Z,35.02
2023-06-28T14:06:19.158Z,35.94
2023-06-28T14:08:46.248Z,35.73
2023-06-28T14:11:13.963Z,35.05
2023-06-28T14:13:41.016Z,34.59
2023-06-28T14:16:08.050Z,35.34
2023-06-28T14:18:35.069Z,35.36
2023-06-28T14:21:02.062Z,35.12
2023-06-28T14:23:29.062Z,35.41
2023-06-28T14:25:56.087Z,34.96
2023-06-28T14:28:24.328Z,35.55
2023-06-28T14:30:51.416Z,34.99
2023-06-28T14:33:18.471Z,34.88
2023-06-28T14:35:45.606Z,35.31
2023-06-28T14:38:12.944Z,35.65
2023-06-28T14:40:40.183Z,35.43
2023-06-28T14:43:09.049Z,35.56
2023-06-28T14:45:36.278Z,35.05
2023-06-28T14:48:03.632Z,34.74
2023-06-28T14:50:30.667Z,34.75
2023-06-28T14:52:57.801Z,34.09
2023-06-28T14:55:24.850Z,34.33
2023-06-28T14:57:51.887Z,34.30
2023-06-28T15:00:19.334Z,33.89
2023-06-28T15:02:46.481Z,35.04
2023-06-28T15:05:13.681Z,35.06
2023-06-28T15:07:41.342Z,35.02
2023-06-28T15:10:09.340Z,35.28
2023-06-28T15:12:36.342Z,35.41
2023-06-28T15:15:03.417Z,35.27
2023-06-28T15:17:30.980Z,35.23
2023-06-28T15:19:58.010Z,35.49
2023-06-28T15:22:25.016Z,35.41
2023-06-28T15:24:52.080Z,35.72
2023-06-28T15:27:20.475Z,35.22
2023-06-28T15:29:47.471Z,35.32
2023-06-28T15:32:14.463Z,35.43
2023-06-28T15:34:41.516Z,35.58
2023-06-28T15:37:08.511Z,35.64
2023-06-28T15:39:35.489Z,35.99
2023-06-28T15:42:02.782Z,35.75
2023-06-28T15:44:29.785Z,35.95
2023-06-28T15:46:56.760Z,36.13
2023-06-28T15:49:24.675Z,36.02
2023-06-28T15:51:51.806Z,36.20
2023-06-28T15:54:18.859Z,35.98
2023-06-28T15:56:47.846Z,36.33
2023-06-28T15:59:14.852Z,36.16
2023-06-28T16:01:44.987Z,36.16
2023-06-28T16:04:12.605Z,36.59
2023-06-28T16:06:39.649Z,37.07
2023-06-28T16:09:06.798Z,37.01
2023-06-28T16:11:34.830Z,37.62
2023-06-28T16:14:01.931Z,38.01
2023-06-28T16:16:30.030Z,38.31
2023-06-28T16:18:57.265Z,38.38
2023-06-28T16:21:24.418Z,38.31
2023-06-28T16:23:51.484Z,37.23
2023-06-28T16:26:18.558Z,37.90
2023-06-28T16:28:45.537Z,37.48
2023-06-28T16:31:12.564Z,36.36
2023-06-28T16:33:39.678Z,36.57
2023-06-28T16:36:06.664Z,35.76
2023-06-28T16:38:33.657Z,35.77
2023-06-28T16:41:00.772Z,35.63
2023-06-28T16:43:27.814Z,35.31
2023-06-28T16:45:54.944Z,35.35
2023-06-28T16:48:22.109Z,35.29
2023-06-28T16:50:49.348Z,35.44
2023-06-28T16:53:16.694Z,35.51
2023-06-28T16:55:43.719Z,36.06
2023-06-28T16:58:10.904Z,36.03
2023-06-28T17:00:37.993Z,35.95
2023-06-28T17:03:05.171Z,35.78
2023-06-28T17:05:32.308Z,36.10
2023-06-28T17:07:59.408Z,36.24
2023-06-28T17:10:26.486Z,36.01
2023-06-28T17:12:53.577Z,36.34
2023-06-28T17:15:20.555Z,36.46
2023-06-28T17:17:48.313Z,36.45
2023-06-28T17:20:17.013Z,36.34
2023-06-28T17:22:44.027Z,36.62
2023-06-28T17:25:11.062Z,36.50
2023-06-28T17:27:40.359Z,36.58
2023-06-28T17:30:08.355Z,36.58
2023-06-28T17:32:35.523Z,36.63
2023-06-28T17:35:02.591Z,36.46
2023-06-28T17:37:29.800Z,36.59
2023-06-28T17:39:56.837Z,36.68
2023-06-28T17:42:23.889Z,37.01
2023-06-28T17:44:50.902Z,36.68
2023-06-28T17:47:17.963Z,36.36
2023-06-28T17:49:44.969Z,36.10
2023-06-28T17:52:11.969Z,36.12
2023-06-28T17:54:39.096Z,36.35
2023-06-28T17:57:06.479Z,36.10
2023-06-28T17:59:33.473Z,36.33
2023-06-28T18:02:00.629Z,36.33
2023-06-28T18:04:27.768Z,36.29
2023-06-28T18:06:55.600Z,36.41
2023-06-28T18:09:22.732Z,36.31
2023-06-28T18:11:49.877Z,36.44
2023-06-28T18:14:16.882Z,36.23
2023-06-28T18:16:44.288Z,36.28
2023-06-28T18:19:12.629Z,36.30
2023-06-28T18:21:39.634Z,36.21
2023-06-28T18:24:07.274Z,36.09
2023-06-28T18:26:34.282Z,36.29
2023-06-28T18:29:01.257Z,35.93
2023-06-28T18:31:28.343Z,36.24
2023-06-28T18:33:55.380Z,36.18
2023-06-28T18:36:22.389Z,36.20
2023-06-28T18:38:49.383Z,36.30
2023-06-28T18:41:16.516Z,36.25
2023-06-28T18:43:43.504Z,36.52
2023-06-28T18:46:10.560Z,36.26
2023-06-28T18:48:37.569Z,36.31
2023-06-28T18:51:04.646Z,36.32
2023-06-28T18:53:31.849Z,36.35
2023-06-28T18:55:58.983Z,36.30
2023-06-28T18:58:31.732Z,36.42
2023-06-28T19:00:59.404Z,36.17
2023-06-28T19:03:27.815Z,37.04
2023-06-28T19:05:55.371Z,36.88
2023-06-28T19:08:23.183Z,36.90
2023-06-28T19:10:50.772Z,36.94
2023-06-28T19:13:21.256Z,37.25
2023-06-28T19:15:49.537Z,37.30
2023-06-28T19:18:16.800Z,37.18
2023-06-28T19:20:46.066Z,37.67
2023-06-28T19:23:14.294Z,37.84
2023-06-28T19:25:41.776Z,37.41
2023-06-28T19:28:09.414Z,37.67
2023-06-28T19:30:36.486Z,37.76
2023-06-28T19:33:03.630Z,37.85
2023-06-28T19:35:30.705Z,37.54
2023-06-28T19:37:57.772Z,37.73
2023-06-28T19:40:25.064Z,37.56
2023-06-28T19:42:52.064Z,38.18
2023-06-28T19:45:19.170Z,37.77
2023-06-28T19:47:47.552Z,37.83
2023-06-28T19:50:14.693Z,38.31
2023-06-28T19:52:41.698Z,38.63
2023-06-28T19:55:09.895Z,38.22
2023-06-28T19:57:36.960Z,38.29
2023-06-28T20:00:06.439Z,38.43
2023-06-28T20:02:42.792Z,39.73
2023-06-28T20:05:10.204Z,39.35
2023-06-28T20:07:38.017Z,39.42
2023-06-28T20:10:05.835Z,39.41
2023-06-28T20:12:34.232Z,40.02
2023-06-28T20:15:04.940Z,39.82
2023-06-28T20:17:34.773Z,40.01
2023-06-28T20:20:01.928Z,39.51
2023-06-28T20:22:33.960Z,41.12
2023-06-28T20:25:06.964Z,40.50
2023-06-28T20:27:35.238Z,40.05
2023-06-28T20:30:03.441Z,39.82
2023-06-28T20:32:32.058Z,39.96
2023-06-28T20:35:00.263Z,41.29
2023-06-28T20:37:27.418Z,40.90
2023-06-28T20:39:54.620Z,40.29
2023-06-28T20:42:25.672Z,40.41
2023-06-28T20:44:54.587Z,39.97
2023-06-28T20:47:26.519Z,40.09
2023-06-28T20:49:53.832Z,40.96
2023-06-28T20:52:21.309Z,41.30
2023-06-28T20:54:48.310Z,40.63
2023-06-28T20:57:15.385Z,41.58
2023-06-28T20:59:42.412Z,41.84
2023-06-28T21:02:09.449Z,42.10
2023-06-28T21:04:36.955Z,42.52
2023-06-28T21:07:04.443Z,43.06
2023-06-28T21:09:31.506Z,43.15
2023-06-28T21:11:58.521Z,42.41
2023-06-28T21:14:25.587Z,43.10
2023-06-28T21:16:52.620Z,43.76
2023-06-28T21:19:19.640Z,44.16
2023-06-28T21:21:46.721Z,43.61
2023-06-28T21:24:15.158Z,44.31
2023-06-28T21:26:42.545Z,44.47
2023-06-28T21:29:09.568Z,45.55
2023-06-28T21:31:36.639Z,45.20
2023-06-28T21:34:03.888Z,44.88
2023-06-28T21:36:30.893Z,44.74
2023-06-28T21:38:58.537Z,45.00
2023-06-28T21:41:25.646Z,45.21
2023-06-28T21:43:52.721Z,44.92
2023-06-28T21:46:19.951Z,45.77
2023-06-28T21:48:47.235Z,45.46
2023-06-28T21:51:14.303Z,45.37
2023-06-28T21:53:41.363Z,45.59
2023-06-28T21:56:10.476Z,45.48
2023-06-28T21:58:37.812Z,46.37
2023-06-28T22:01:04.897Z,46.33
2023-06-28T22:03:32.051Z,46.24
2023-06-28T22:05:59.146Z,46.72
2023-06-28T22:08:26.140Z,46.64
2023-06-28T22:10:54.848Z,46.72
2023-06-28T22:13:24.585Z,46.29
2023-06-28T22:15:52.025Z,46.69
2023-06-28T22:18:21.017Z,46.93
2023-06-28T22:20:49.264Z,46.95
2023-06-28T22:23:17.917Z,46.83
2023-06-28T22:25:46.222Z,46.80
2023-06-28T22:28:13.224Z,46.81
2023-06-28T22:30:40.242Z,46.43
2023-06-28T22:33:07.428Z,46.92
2023-06-28T22:35:34.507Z,47.80
2023-06-28T22:38:01.533Z,47.63
2023-06-28T22:40:28.573Z,47.91
2023-06-28T22:42:55.590Z,48.25
2023-06-28T22:45:23.011Z,47.84
2023-06-28T22:47:51.833Z,48.50
2023-06-28T22:50:18.925Z,48.84
2023-06-28T22:52:45.938Z,48.25
2023-06-28T22:55:13.264Z,48.56
2023-06-28T22:57:40.616Z,48.22
2023-06-28T23:00:11.238Z,48.36
2023-06-28T23:02:38.889Z,48.40
2023-06-28T23:05:08.195Z,48.61
2023-06-28T23:07:39.276Z,49.08
2023-06-28T23:10:07.129Z,48.60
2023-06-28T23:12:38.265Z,48.54
2023-06-28T23:15:06.179Z,48.32
2023-06-28T23:17:33.552Z,48.26
2023-06-28T23:20:08.591Z,47.64
2023-06-28T23:22:35.871Z,48.49
2023-06-28T23:25:03.596Z,49.05
2023-06-28T23:27:30.828Z,48.42
2023-06-28T23:29:58.461Z,48.61
2023-06-28T23:32:30.082Z,48.63
2023-06-28T23:34:57.470Z,49.15
2023-06-28T23:37:24.631Z,49.63
2023-06-28T23:39:51.985Z,49.19
2023-06-28T23:42:19.284Z,49.06
2023-06-28T23:44:51.370Z,49.62
2023-06-28T23:47:19.543Z,49.68
2023-06-28T23:49:51.435Z,49.51
2023-06-28T23:52:20.842Z,50.14
2023-06-28T23:54:50.009Z,49.54
2023-06-28T23:57:17.049Z,50.34
2023-06-28T23:59:44.153Z,50.55
